Time;durP1;ratioP1;P1;durP2;ratioP2;P2;SDS_P1;SDS_P2;PMS_P1;PMS_P2;Temp;Humidity;BMP_temperature;BMP_pressure;BME280_temperature;BME280_humidity;BME280_pressure;Samples;Min_cycle;Max_cycle;Signal;HPM_P1;HPM_P2
2021/09/24 00:01:05;;;;;;;4.28;3.20;;;16.10;99.90;;;;;;4977339;28;20318;-76
2021/09/24 00:03:32;;;;;;;3.63;3.20;;;16.20;99.90;;;;;;4976840;28;20603;-74
2021/09/24 00:05:59;;;;;;;3.05;2.65;;;16.10;99.90;;;;;;4976570;28;20213;-75
2021/09/24 00:08:26;;;;;;;3.95;3.20;;;16.10;99.90;;;;;;4976073;28;20301;-75
2021/09/24 00:10:53;;;;;;;3.47;3.17;;;16.10;99.90;;;;;;4976480;28;20300;-75
2021/09/24 00:13:20;;;;;;;4.18;3.17;;;16.10;99.90;;;;;;4976025;28;20209;-75
2021/09/24 00:15:47;;;;;;;4.75;3.90;;;15.90;99.90;;;;;;4975146;28;20446;-74
2021/09/24 00:18:16;;;;;;;3.40;3.10;;;16.00;99.90;;;;;;4975950;28;20212;-75
2021/09/24 00:20:42;;;;;;;3.65;3.35;;;16.00;99.90;;;;;;4975938;28;20312;-74
2021/09/24 00:23:09;;;;;;;4.85;3.80;;;16.00;99.90;;;;;;4975649;28;20328;-74
2021/09/24 00:25:36;;;;;;;4.45;3.25;;;15.90;99.90;;;;;;4975859;28;20627;-75
2021/09/24 00:28:05;;;;;;;3.97;3.22;;;16.00;99.90;;;;;;4975706;28;20212;-74
2021/09/24 00:30:32;;;;;;;3.88;3.17;;;16.00;99.90;;;;;;4975752;28;20220;-75
2021/09/24 00:32:59;;;;;;;4.47;3.80;;;15.90;99.90;;;;;;4975398;28;20578;-74
2021/09/24 00:35:27;;;;;;;3.60;3.30;;;15.90;99.90;;;;;;4975389;28;20239;-75
2021/09/24 00:37:54;;;;;;;3.92;3.38;;;15.90;99.90;;;;;;4975591;28;20216;-74
2021/09/24 00:40:21;;;;;;;4.30;3.67;;;15.90;99.90;;;;;;4975605;28;20299;-74
2021/09/24 00:42:48;;;;;;;4.05;3.65;;;15.90;99.90;;;;;;4975041;28;20710;-74
2021/09/24 00:45:15;;;;;;;5.00;3.67;;;15.70;99.90;;;;;;4975700;28;20234;-74
2021/09/24 00:47:42;;;;;;;4.60;4.00;;;15.60;99.90;;;;;;4975611;28;20295;-75
2021/09/24 00:50:10;;;;;;;6.85;4.50;;;15.50;99.90;;;;;;4975554;28;20204;-75
2021/09/24 00:52:38;;;;;;;6.28;4.57;;;15.20;99.90;;;;;;4975477;28;20292;-74
2021/09/24 00:55:05;;;;;;;5.90;3.97;;;15.00;99.90;;;;;;4975319;28;20318;-75
2021/09/24 00:57:32;;;;;;;5.13;3.70;;;14.90;99.90;;;;;;4975181;28;20657;-74
2021/09/24 00:59:59;;;;;;;6.10;4.10;;;15.00;99.90;;;;;;4975018;28;20211;-74
2021/09/24 01:02:26;;;;;;;4.30;3.90;;;15.00;99.90;;;;;;4974991;28;20231;-75
2021/09/24 01:04:53;;;;;;;4.70;4.13;;;15.00;99.90;;;;;;4975135;28;20228;-74
2021/09/24 01:07:20;;;;;;;5.95;3.95;;;15.00;99.90;;;;;;4975195;28;20643;-74
2021/09/24 01:09:48;;;;;;;4.95;3.80;;;15.10;99.90;;;;;;4975083;28;20316;-74
2021/09/24 01:12:15;;;;;;;4.00;3.50;;;15.00;99.90;;;;;;4974941;28;20214;-74
2021/09/24 01:14:42;;;;;;;5.30;3.80;;;14.80;99.90;;;;;;4975035;28;20231;-74
2021/09/24 01:17:09;;;;;;;5.30;3.60;;;14.60;99.90;;;;;;4975336;28;20208;-74
2021/09/24 01:19:35;;;;;;;6.35;3.80;;;14.60;99.90;;;;;;4975050;28;20206;-74
2021/09/24 01:22:04;;;;;;;4.20;3.40;;;14.70;99.90;;;;;;4974763;28;20234;-74
2021/09/24 01:24:31;;;;;;;4.90;3.85;;;14.80;99.90;;;;;;4974921;28;20594;-74
2021/09/24 01:26:58;;;;;;;4.32;3.20;;;14.80;99.90;;;;;;4974704;28;20240;-74
2021/09/24 01:29:28;;;;;;;5.28;3.60;;;14.80;99.90;;;;;;4974858;28;20249;-74
2021/09/24 01:31:55;;;;;;;4.45;3.70;;;14.80;99.90;;;;;;4974458;28;20555;-75
2021/09/24 01:34:21;;;;;;;3.70;3.20;;;14.90;99.90;;;;;;4974606;28;20224;-74
2021/09/24 01:36:48;;;;;;;5.40;4.25;;;14.90;99.90;;;;;;4974873;28;20208;-74
2021/09/24 01:39:16;;;;;;;4.45;3.55;;;14.90;99.90;;;;;;4974485;28;20314;-75
2021/09/24 01:41:46;;;;;;;4.18;3.72;;;14.80;99.90;;;;;;4974527;28;20215;-75
2021/09/24 01:44:13;;;;;;;4.28;3.28;;;14.80;99.90;;;;;;4974754;28;20318;-74
2021/09/24 01:46:41;;;;;;;3.53;2.97;;;14.60;99.90;;;;;;4974708;28;20204;-74
2021/09/24 01:49:08;;;;;;;4.50;3.65;;;14.50;99.90;;;;;;4974957;28;20300;-74
2021/09/24 01:51:38;;;;;;;5.50;3.80;;;14.40;99.90;;;;;;4974788;28;20301;-74
2021/09/24 01:54:07;;;;;;;5.25;3.50;;;14.40;99.90;;;;;;4975458;28;20229;-74
2021/09/24 01:56:35;;;;;;;5.57;4.00;;;14.50;99.90;;;;;;4974611;28;20218;-74
2021/09/24 01:59:02;;;;;;;6.05;4.05;;;14.50;99.90;;;;;;4974491;28;20293;-74
2021/09/24 02:01:29;;;;;;;4.93;4.03;;;14.50;99.90;;;;;;4974407;28;20294;-74
2021/09/24 02:03:56;;;;;;;4.75;3.53;;;14.50;99.90;;;;;;4974440;28;20235;-74
2021/09/24 02:06:23;;;;;;;4.35;3.20;;;14.50;99.90;;;;;;4974513;28;20300;-74
2021/09/24 02:08:50;;;;;;;4.85;3.88;;;14.60;99.90;;;;;;4974539;28;20213;-75
2021/09/24 02:11:16;;;;;;;4.53;3.25;;;14.60;99.90;;;;;;4974299;28;20318;-75
2021/09/24 02:13:45;;;;;;;5.30;3.70;;;14.50;99.90;;;;;;4974473;28;20228;-74
2021/09/24 02:16:12;;;;;;;6.63;4.20;;;14.50;99.90;;;;;;4974517;28;20254;-74
2021/09/24 02:18:40;;;;;;;5.57;4.28;;;14.50;99.90;;;;;;4974501;28;20208;-74
2021/09/24 02:21:08;;;;;;;5.75;3.92;;;14.40;99.90;;;;;;4974157;28;20211;-74
2021/09/24 02:23:34;;;;;;;4.82;3.80;;;14.50;99.90;;;;;;4974147;28;20233;-74
2021/09/24 02:26:02;;;;;;;5.18;4.18;;;14.40;99.90;;;;;;4974516;28;20572;-74
2021/09/24 02:28:28;;;;;;;5.78;3.70;;;14.30;99.90;;;;;;4974335;28;20218;-74
2021/09/24 02:30:57;;;;;;;5.50;4.20;;;14.10;99.90;;;;;;4974085;28;20303;-74
2021/09/24 02:33:24;;;;;;;4.50;3.80;;;14.20;99.90;;;;;;4977457;28;20310;-74
2021/09/24 02:35:50;;;;;;;4.82;4.30;;;14.30;99.90;;;;;;4977863;28;20302;-74
2021/09/24 02:38:17;;;;;;;5.18;4.07;;;14.30;99.90;;;;;;4977785;28;20564;-74
2021/09/24 02:40:45;;;;;;;4.63;3.88;;;14.40;99.90;;;;;;4977802;28;20280;-74
2021/09/24 02:43:12;;;;;;;5.15;3.90;;;14.40;99.90;;;;;;4977406;28;20588;-74
2021/09/24 02:45:39;;;;;;;5.00;3.75;;;14.50;99.90;;;;;;4977791;28;20306;-74
2021/09/24 02:48:07;;;;;;;5.95;3.78;;;14.50;99.90;;;;;;4977835;28;20214;-74
2021/09/24 02:50:34;;;;;;;4.25;3.50;;;14.60;99.90;;;;;;4977468;28;20243;-74
2021/09/24 02:53:01;;;;;;;4.43;3.65;;;14.60;99.90;;;;;;4977054;28;20293;-74
2021/09/24 02:55:28;;;;;;;4.78;3.97;;;14.70;99.90;;;;;;4977497;28;20227;-74
2021/09/24 02:57:54;;;;;;;4.03;3.55;;;14.60;99.90;;;;;;4977354;28;20246;-74
2021/09/24 03:00:21;;;;;;;6.35;4.00;;;14.60;99.90;;;;;;4977473;28;20211;-74
2021/09/24 03:02:48;;;;;;;4.40;3.60;;;14.60;99.90;;;;;;4977108;28;20215;-74
2021/09/24 03:05:16;;;;;;;4.25;3.75;;;14.50;99.90;;;;;;4977298;28;20258;-74
2021/09/24 03:07:43;;;;;;;3.60;2.92;;;14.60;99.90;;;;;;4977214;28;20570;-74
2021/09/24 03:10:11;;;;;;;5.00;3.42;;;14.50;99.90;;;;;;4977151;28;20293;-74
2021/09/24 03:12:38;;;;;;;5.28;3.67;;;14.50;99.90;;;;;;4976693;28;20234;-74
2021/09/24 03:15:07;;;;;;;7.53;5.22;;;14.50;99.90;;;;;;4976810;28;20231;-74
2021/09/24 03:17:34;;;;;;;5.93;4.28;;;14.50;99.90;;;;;;4977102;28;20206;-74
2021/09/24 03:20:01;;;;;;;4.57;3.70;;;14.40;99.90;;;;;;4976992;28;20249;-74
2021/09/24 03:22:29;;;;;;;10.05;6.13;;;14.50;99.90;;;;;;4976816;28;20242;-74
2021/09/24 03:24:56;;;;;;;4.90;3.85;;;14.50;99.90;;;;;;4976886;28;20227;-74
2021/09/24 03:27:23;;;;;;;5.10;4.00;;;14.50;99.90;;;;;;4976698;28;20204;-74
2021/09/24 03:29:50;;;;;;;4.65;3.72;;;14.50;99.90;;;;;;4976818;28;20676;-74
2021/09/24 03:32:19;;;;;;;4.63;3.65;;;14.60;99.90;;;;;;4976252;28;20256;-74
2021/09/24 03:34:46;;;;;;;4.60;3.67;;;14.60;99.90;;;;;;4976808;28;20227;-74
2021/09/24 03:37:12;;;;;;;4.75;3.47;;;14.50;99.90;;;;;;4976619;28;20662;-74
2021/09/24 03:39:41;;;;;;;5.95;3.83;;;14.50;99.90;;;;;;4976623;28;20215;-74
2021/09/24 03:42:08;;;;;;;5.53;3.92;;;14.50;99.90;;;;;;4976203;28;20210;-74
2021/09/24 03:44:35;;;;;;;5.30;4.07;;;14.50;99.90;;;;;;4975605;28;20228;-74
2021/09/24 03:47:02;;;;;;;5.35;3.78;;;14.50;99.90;;;;;;4976570;28;20574;-74
2021/09/24 03:49:29;;;;;;;5.78;3.97;;;14.60;99.90;;;;;;4976351;28;20214;-74
2021/09/24 03:51:55;;;;;;;5.75;4.40;;;14.50;99.90;;;;;;4976233;28;20299;-74
2021/09/24 03:54:23;;;;;;;5.88;4.30;;;14.50;99.90;;;;;;4976196;28;20233;-75
2021/09/24 03:56:51;;;;;;;5.65;3.95;;;14.50;99.90;;;;;;4976099;28;20214;-74
2021/09/24 03:59:18;;;;;;;13.40;8.00;;;14.50;99.90;;;;;;4976316;28;20203;-74
2021/09/24 04:01:45;;;;;;;5.38;4.45;;;14.50;99.90;;;;;;4975986;28;20250;-74
2021/09/24 04:04:11;;;;;;;7.60;3.85;;;14.50;99.90;;;;;;4976093;28;20226;-75
2021/09/24 04:06:38;;;;;;;3.80;3.40;;;14.40;99.90;;;;;;4975944;28;20299;-74
2021/09/24 04:09:05;;;;;;;4.05;3.65;;;14.40;99.90;;;;;;4976065;28;20290;-75
2021/09/24 04:11:32;;;;;;;5.15;3.85;;;14.40;99.90;;;;;;4975706;28;20296;-75
2021/09/24 04:14:00;;;;;;;5.50;3.92;;;14.40;99.90;;;;;;4975627;28;20322;-74
2021/09/24 04:16:27;;;;;;;5.10;3.85;;;14.40;99.90;;;;;;4976053;28;20302;-74
2021/09/24 04:18:54;;;;;;;5.97;4.25;;;14.40;99.90;;;;;;4975958;28;20298;-74
2021/09/24 04:21:21;;;;;;;6.82;3.70;;;14.40;99.90;;;;;;4975453;28;20733;-74
2021/09/24 04:23:47;;;;;;;4.55;3.80;;;14.40;99.90;;;;;;4975749;28;20229;-74
2021/09/24 04:26:14;;;;;;;5.25;4.00;;;14.30;99.90;;;;;;4975819;28;20296;-74
2021/09/24 04:28:41;;;;;;;5.13;3.83;;;14.30;99.90;;;;;;4975592;28;20306;-74
2021/09/24 04:31:10;;;;;;;6.38;4.25;;;14.30;99.90;;;;;;4975571;28;20208;-74
2021/09/24 04:33:37;;;;;;;5.07;4.00;;;14.30;99.90;;;;;;4975202;28;20321;-74
2021/09/24 04:36:04;;;;;;;4.25;3.55;;;14.30;99.90;;;;;;4975599;28;20627;-75
2021/09/24 04:38:31;;;;;;;14.80;8.93;;;14.30;99.90;;;;;;4975566;28;20207;-74
2021/09/24 04:40:58;;;;;;;8.10;5.28;;;14.30;99.90;;;;;;4975538;28;20203;-73
2021/09/24 04:43:25;;;;;;;6.78;4.70;;;14.30;99.90;;;;;;4975481;28;20294;-74
2021/09/24 04:45:52;;;;;;;5.63;4.10;;;14.20;99.90;;;;;;4975539;28;20574;-74
2021/09/24 04:48:20;;;;;;;4.90;4.00;;;14.20;99.90;;;;;;4975322;28;20298;-74
2021/09/24 04:50:47;;;;;;;6.90;4.10;;;14.20;99.90;;;;;;4975330;28;20207;-75
2021/09/24 04:53:13;;;;;;;6.13;4.65;;;14.20;99.90;;;;;;4974837;28;20231;-74
2021/09/24 04:55:40;;;;;;;5.95;4.22;;;14.20;99.90;;;;;;4975171;28;20207;-74
2021/09/24 04:58:07;;;;;;;4.95;4.45;;;14.20;99.90;;;;;;4975265;28;20204;-74
2021/09/24 05:00:34;;;;;;;5.05;3.75;;;14.20;99.90;;;;;;4975167;28;20611;-74
2021/09/24 05:03:01;;;;;;;5.07;3.60;;;14.10;99.90;;;;;;4975212;28;20249;-74
2021/09/24 05:05:29;;;;;;;4.95;3.95;;;14.10;99.90;;;;;;4975001;28;20332;-74
2021/09/24 05:07:56;;;;;;;12.48;8.35;;;14.10;99.90;;;;;;4975139;28;20246;-74
2021/09/24 05:10:23;;;;;;;5.40;4.53;;;14.00;99.90;;;;;;4974989;28;20293;-74
2021/09/24 05:12:50;;;;;;;6.30;4.35;;;14.00;99.90;;;;;;4974721;28;20661;-74
2021/09/24 05:15:16;;;;;;;6.60;4.28;;;14.00;99.90;;;;;;4974716;28;20235;-74
2021/09/24 05:17:43;;;;;;;5.45;4.40;;;14.00;99.90;;;;;;4974982;28;20217;-74
2021/09/24 05:20:11;;;;;;;4.68;3.80;;;13.90;99.90;;;;;;4974736;28;20241;-75
2021/09/24 05:22:39;;;;;;;7.63;4.45;;;13.90;99.90;;;;;;4974522;28;20206;-74
2021/09/24 05:25:07;;;;;;;5.43;4.32;;;13.90;99.90;;;;;;4974907;28;20304;-74
2021/09/24 05:27:34;;;;;;;5.47;4.40;;;13.80;99.90;;;;;;4974863;28;20212;-74
2021/09/24 05:30:01;;;;;;;5.70;4.38;;;13.80;99.90;;;;;;4974853;28;20210;-74
2021/09/24 05:32:28;;;;;;;6.88;4.32;;;13.90;99.90;;;;;;4974333;28;20305;-74
2021/09/24 05:34:55;;;;;;;5.72;4.20;;;13.90;99.90;;;;;;4974742;28;20230;-74
2021/09/24 05:37:22;;;;;;;5.30;4.30;;;13.90;99.90;;;;;;4974569;28;20301;-74
2021/09/24 05:39:50;;;;;;;7.70;4.63;;;14.00;99.90;;;;;;4974981;28;20662;-74
2021/09/24 05:42:17;;;;;;;5.50;4.75;;;13.90;99.90;;;;;;4974507;28;20313;-75
2021/09/24 05:44:44;;;;;;;5.47;4.25;;;13.70;99.90;;;;;;4974674;28;20642;-75
2021/09/24 05:47:11;;;;;;;6.22;4.38;;;13.70;99.90;;;;;;4974820;28;20209;-75
2021/09/24 05:49:37;;;;;;;7.22;4.63;;;13.50;99.90;;;;;;4974506;28;20252;-74
2021/09/24 05:52:05;;;;;;;6.25;3.90;;;13.40;99.90;;;;;;4974511;28;20237;-74
2021/09/24 05:54:32;;;;;;;7.75;4.90;;;13.50;99.90;;;;;;4974506;28;20260;-75
2021/09/24 05:57:00;;;;;;;5.40;3.95;;;13.50;99.90;;;;;;4974702;28;20649;-74
2021/09/24 05:59:27;;;;;;;5.55;4.28;;;13.70;99.90;;;;;;4974488;28;20661;-74
2021/09/24 06:01:54;;;;;;;5.68;4.22;;;13.80;99.90;;;;;;4974517;28;20292;-74
2021/09/24 06:04:21;;;;;;;6.97;4.32;;;13.80;99.90;;;;;;4974618;28;20222;-74
2021/09/24 06:06:48;;;;;;;4.82;4.35;;;13.70;99.90;;;;;;4975809;28;20301;-74
2021/09/24 06:09:15;;;;;;;5.70;4.63;;;13.60;99.90;;;;;;4978485;28;20296;-74
2021/09/24 06:11:42;;;;;;;5.10;4.30;;;13.70;99.90;;;;;;4978120;28;20698;-74
2021/09/24 06:14:11;;;;;;;5.75;4.55;;;13.50;99.90;;;;;;4978060;28;20316;-74
2021/09/24 06:16:38;;;;;;;7.45;4.68;;;13.40;99.90;;;;;;4978265;28;20237;-74
2021/09/24 06:19:05;;;;;;;6.63;4.53;;;13.40;99.90;;;;;;4978259;28;20210;-74
2021/09/24 06:21:32;;;;;;;7.13;4.95;;;13.50;99.90;;;;;;4977991;28;20206;-74
2021/09/24 06:23:59;;;;;;;6.55;5.20;;;13.50;99.90;;;;;;4978069;28;20557;-74
2021/09/24 06:26:26;;;;;;;6.40;4.22;;;13.70;99.90;;;;;;4977784;28;20338;-74
2021/09/24 06:28:52;;;;;;;6.25;4.75;;;13.70;99.90;;;;;;4977830;28;20209;-74
2021/09/24 06:31:21;;;;;;;7.40;5.32;;;13.60;99.90;;;;;;4977565;28;20202;-75
2021/09/24 06:33:49;;;;;;;6.45;4.43;;;13.70;99.90;;;;;;4977496;28;20769;-74
2021/09/24 06:36:19;;;;;;;6.38;4.85;;;13.70;99.90;;;;;;4977913;28;20265;-74
2021/09/24 06:38:46;;;;;;;6.22;4.60;;;13.70;99.90;;;;;;4977915;28;20622;-74
2021/09/24 06:41:13;;;;;;;7.20;4.45;;;13.70;99.90;;;;;;4977521;28;20212;-74
2021/09/24 06:43:40;;;;;;;7.65;5.45;;;13.80;99.90;;;;;;4977620;28;20226;-74
2021/09/24 06:46:07;;;;;;;5.50;4.18;;;13.80;99.90;;;;;;4977718;28;20209;-74
2021/09/24 06:48:36;;;;;;;5.20;4.30;;;13.80;99.90;;;;;;4977668;28;20553;-74
2021/09/24 06:51:03;;;;;;;5.47;4.75;;;13.80;99.90;;;;;;4977382;28;20301;-74
2021/09/24 06:53:30;;;;;;;7.30;4.75;;;13.80;99.90;;;;;;4977664;28;20212;-74
2021/09/24 06:55:57;;;;;;;6.03;4.60;;;13.80;99.90;;;;;;4977252;28;20245;-74
2021/09/24 06:58:24;;;;;;;6.97;5.13;;;13.80;99.90;;;;;;4977207;28;20635;-74
2021/09/24 07:00:51;;;;;;;7.18;4.55;;;13.80;99.90;;;;;;4977231;28;20211;-74
2021/09/24 07:03:18;;;;;;;5.80;4.35;;;13.90;99.90;;;;;;4977314;28;20206;-74
2021/09/24 07:05:46;;;;;;;6.47;4.45;;;13.90;99.90;;;;;;4977576;28;20295;-74
2021/09/24 07:08:13;;;;;;;6.80;4.28;;;14.00;99.90;;;;;;4977292;28;20297;-75
2021/09/24 07:10:40;;;;;;;6.60;5.18;;;14.10;99.90;;;;;;4977024;28;20677;-74
2021/09/24 07:13:07;;;;;;;6.15;4.43;;;14.20;99.90;;;;;;4977213;28;20233;-74
2021/09/24 07:15:34;;;;;;;6.82;4.30;;;14.40;99.90;;;;;;4977157;28;20237;-74
2021/09/24 07:18:01;;;;;;;7.93;4.88;;;14.40;99.90;;;;;;4977082;28;20203;-74
2021/09/24 07:20:27;;;;;;;4.93;4.25;;;14.60;99.90;;;;;;4977409;28;20212;-74
2021/09/24 07:22:55;;;;;;;6.15;4.50;;;14.60;99.90;;;;;;4976876;28;20217;-74
2021/09/24 07:25:22;;;;;;;6.20;4.43;;;14.70;99.90;;;;;;4976874;28;20236;-74
2021/09/24 07:27:49;;;;;;;9.02;4.38;;;14.80;99.90;;;;;;4976844;28;20297;-75
2021/09/24 07:30:16;;;;;;;6.60;4.28;;;14.80;99.90;;;;;;4976912;28;20298;-74
2021/09/24 07:32:43;;;;;;;6.60;4.53;;;14.90;99.90;;;;;;4976775;28;20311;-75
2021/09/24 07:35:10;;;;;;;5.93;4.80;;;15.00;99.90;;;;;;4976842;28;20322;-75
2021/09/24 07:37:37;;;;;;;8.15;5.15;;;15.00;99.90;;;;;;4976793;28;20207;-74
2021/09/24 07:40:06;;;;;;;6.45;5.32;;;15.10;99.90;;;;;;4977047;28;20218;-74
2021/09/24 07:42:33;;;;;;;7.93;5.00;;;15.10;99.90;;;;;;4977107;28;20551;-75
2021/09/24 07:45:00;;;;;;;9.50;5.15;;;15.20;99.90;;;;;;4977148;28;20223;-75
2021/09/24 07:47:26;;;;;;;6.07;5.47;;;15.20;99.90;;;;;;4977090;28;20215;-77
2021/09/24 07:49:53;;;;;;;6.55;4.68;;;15.40;99.90;;;;;;4977494;28;20207;-78
2021/09/24 07:52:20;;;;;;;6.53;4.53;;;15.40;99.90;;;;;;4976967;28;20208;-76
2021/09/24 07:54:47;;;;;;;5.90;4.38;;;15.40;99.90;;;;;;4976527;28;20251;-78
2021/09/24 07:57:15;;;;;;;6.72;5.13;;;15.40;99.90;;;;;;4976333;28;20209;-78
2021/09/24 07:59:43;;;;;;;7.07;5.43;;;15.40;99.90;;;;;;4979107;28;20295;-76
2021/09/24 08:02:10;;;;;;;5.80;4.50;;;15.40;99.90;;;;;;4977494;28;20212;-73
2021/09/24 08:04:37;;;;;;;6.57;4.45;;;15.50;99.90;;;;;;4975916;28;20715;-74
2021/09/24 08:07:06;;;;;;;7.75;4.70;;;15.70;99.90;;;;;;4976165;28;20204;-73
2021/09/24 08:09:33;;;;;;;5.18;4.47;;;15.80;99.90;;;;;;4976161;28;20212;-71
2021/09/24 08:12:00;;;;;;;7.20;5.38;;;15.90;99.90;;;;;;4975831;28;20209;-71
2021/09/24 08:14:28;;;;;;;5.65;4.90;;;15.90;99.90;;;;;;4975808;28;20233;-71
2021/09/24 08:16:55;;;;;;;5.78;4.50;;;16.00;99.90;;;;;;4975655;28;20754;-71
2021/09/24 08:19:22;;;;;;;5.35;4.20;;;16.10;99.90;;;;;;4975996;28;20210;-71
2021/09/24 08:21:49;;;;;;;6.97;4.57;;;16.20;99.90;;;;;;4976121;28;20216;-71
2021/09/24 08:24:16;;;;;;;6.22;4.43;;;16.30;99.90;;;;;;4975652;28;20323;-71
2021/09/24 08:26:43;;;;;;;5.40;3.80;;;16.40;99.90;;;;;;4975560;28;20215;-71
2021/09/24 08:29:10;;;;;;;5.32;4.50;;;16.50;99.90;;;;;;4975268;28;20213;-71
2021/09/24 08:31:38;;;;;;;6.22;4.03;;;16.50;99.90;;;;;;4975438;28;20206;-71
2021/09/24 08:34:05;;;;;;;5.82;4.40;;;16.60;99.90;;;;;;4975224;28;20233;-71
2021/09/24 08:36:33;;;;;;;4.97;3.90;;;16.70;99.90;;;;;;4975460;28;20660;-71
2021/09/24 08:39:00;;;;;;;5.18;4.10;;;16.80;99.90;;;;;;4975457;28;20305;-71
2021/09/24 08:41:29;;;;;;;5.70;4.25;;;17.00;99.90;;;;;;4975316;28;20210;-71
2021/09/24 08:43:56;;;;;;;5.20;4.03;;;17.20;99.90;;;;;;4975339;28;20234;-71
2021/09/24 08:46:22;;;;;;;6.10;4.97;;;17.30;99.90;;;;;;4975203;28;20683;-71
2021/09/24 08:48:51;;;;;;;5.22;4.00;;;17.40;99.90;;;;;;4975417;28;20210;-71
2021/09/24 08:51:18;;;;;;;6.00;4.53;;;17.40;99.90;;;;;;4975174;28;20301;-71
2021/09/24 08:53:45;;;;;;;4.20;3.50;;;17.30;99.90;;;;;;4975448;28;20234;-71
2021/09/24 08:56:14;;;;;;;4.60;3.70;;;17.40;99.90;;;;;;4975289;28;20645;-71
2021/09/24 08:58:41;;;;;;;4.35;3.70;;;17.40;99.90;;;;;;4975190;28;20213;-71
2021/09/24 09:01:08;;;;;;;5.18;3.83;;;17.60;99.90;;;;;;4974821;28;20202;-71
2021/09/24 09:03:40;;;;;;;4.03;3.63;;;17.60;99.90;;;;;;4974979;28;20233;-71
2021/09/24 09:06:09;;;;;;;5.30;4.30;;;17.70;99.90;;;;;;4975224;28;20209;-71
2021/09/24 09:08:37;;;;;;;5.97;3.65;;;17.80;99.90;;;;;;4975118;28;20292;-71
2021/09/24 09:11:06;;;;;;;4.38;3.97;;;17.90;99.90;;;;;;4974612;28;20210;-71
2021/09/24 09:13:35;;;;;;;4.80;3.85;;;18.10;99.90;;;;;;4975011;28;20652;-71
2021/09/24 09:16:04;;;;;;;5.57;4.97;;;18.40;99.90;;;;;;4975105;28;20222;-71
2021/09/24 09:18:33;;;;;;;6.50;4.97;;;18.50;99.90;;;;;;4975021;28;20445;-71
2021/09/24 09:21:02;;;;;;;7.40;4.83;;;18.60;99.90;;;;;;4974687;28;20242;-72
2021/09/24 09:23:32;;;;;;;6.43;4.80;;;18.60;99.90;;;;;;4974848;28;20452;-71
2021/09/24 09:26:03;;;;;;;5.07;4.57;;;18.70;99.90;;;;;;4974981;28;20427;-71
2021/09/24 09:28:33;;;;;;;4.75;3.78;;;18.70;99.90;;;;;;4974853;28;20450;-71
2021/09/24 09:31:01;;;;;;;5.67;4.63;;;18.80;99.90;;;;;;4974726;28;20294;-73
2021/09/24 09:33:28;;;;;;;4.97;3.77;;;18.70;99.90;;;;;;4974474;28;20458;-71
2021/09/24 09:35:58;;;;;;;5.00;4.50;;;18.70;99.90;;;;;;4974788;28;20496;-71
2021/09/24 09:38:27;;;;;;;9.70;3.88;;;18.60;99.90;;;;;;4974707;28;20664;-72
2021/09/24 09:40:58;;;;;;;5.30;4.07;;;18.60;99.90;;;;;;4974774;28;20567;-71
2021/09/24 09:43:31;;;;;;;3.55;3.25;;;18.70;99.90;;;;;;4978752;28;20820;-71
2021/09/24 09:45:59;;;;;;;5.80;4.30;;;18.80;99.90;;;;;;4978878;28;20601;-71
2021/09/24 09:48:26;;;;;;;5.73;4.40;;;18.90;99.90;;;;;;4978718;28;20439;-72
2021/09/24 09:50:53;;;;;;;4.97;4.10;;;19.10;99.90;;;;;;4978718;28;20542;-71
2021/09/24 09:53:20;;;;;;;4.97;4.30;;;19.30;99.90;;;;;;4978415;28;20446;-72
2021/09/24 09:55:51;;;;;;;4.30;3.90;;;19.50;99.90;;;;;;4978582;28;20487;-71
2021/09/24 09:58:21;;;;;;;4.60;3.90;;;19.80;99.90;;;;;;4978528;28;20455;-72
2021/09/24 10:00:59;;;;;;;5.83;4.37;;;20.10;99.90;;;;;;4978530;28;20804;-71
2021/09/24 10:03:31;;;;;;;5.17;4.03;;;20.40;99.90;;;;;;4978360;28;20543;-72
2021/09/24 10:05:59;;;;;;;4.07;3.67;;;20.90;99.90;;;;;;4978428;28;20448;-72
2021/09/24 10:08:27;;;;;;;5.03;4.20;;;20.90;99.90;;;;;;4978369;28;20444;-72
2021/09/24 10:11:00;;;;;;;4.63;3.83;;;20.90;99.90;;;;;;4978300;28;20537;-72
2021/09/24 10:13:30;;;;;;;3.50;3.03;;;21.00;99.90;;;;;;4978104;28;20535;-72
2021/09/24 10:15:57;;;;;;;4.00;3.50;;;21.10;99.90;;;;;;4978163;28;20910;-73
2021/09/24 10:18:24;;;;;;;3.90;3.57;;;21.30;99.90;;;;;;4978159;28;20448;-72
2021/09/24 10:20:51;;;;;;;4.83;4.37;;;21.40;99.90;;;;;;4978118;28;20452;-72
2021/09/24 10:23:19;;;;;;;4.47;3.57;;;21.50;99.90;;;;;;4977966;28;20446;-73
2021/09/24 10:25:50;;;;;;;5.57;3.90;;;21.60;99.90;;;;;;4978142;28;20481;-72
2021/09/24 10:28:18;;;;;;;3.57;3.20;;;21.70;99.90;;;;;;4978030;28;20536;-72
2021/09/24 10:30:47;;;;;;;3.50;3.20;;;21.70;99.90;;;;;;4977959;28;20539;-72
2021/09/24 10:33:16;;;;;;;4.80;3.30;;;21.70;99.90;;;;;;4977645;28;20519;-72
2021/09/24 10:35:48;;;;;;;4.00;3.60;;;21.60;99.90;;;;;;4977538;28;20477;-72
2021/09/24 10:38:16;;;;;;;4.00;3.47;;;21.50;99.90;;;;;;4974991;28;20885;-74
2021/09/24 10:40:54;;;;;;;3.87;3.57;;;21.50;99.90;;;;;;4979837;28;20457;-74
2021/09/24 10:43:22;;;;;;;5.47;3.20;;;21.60;99.80;;;;;;4976617;28;20819;-74
2021/09/24 10:45:50;;;;;;;3.90;3.43;;;21.50;99.90;;;;;;4976417;28;20467;-74
2021/09/24 10:48:18;;;;;;;4.03;3.30;;;21.70;99.90;;;;;;4976671;28;20452;-74
2021/09/24 10:50:54;;;;;;;4.83;3.40;;;22.20;99.90;;;;;;4976101;28;20542;-74
2021/09/24 10:53:23;;;;;;;3.00;2.70;;;22.80;97.40;;;;;;4975168;28;20535;-72
2021/09/24 10:56:26;;;;;;;4.83;3.13;;;23.50;97.70;;;;;;4976322;28;20556;-72
2021/09/24 10:58:53;;;;;;;2.80;2.60;;;25.00;93.10;;;;;;4976283;28;20449;-72
2021/09/24 11:01:46;;;;;;;2.70;2.50;;;26.70;88.90;;;;;;4975850;28;20901;-71
2021/09/24 11:04:14;;;;;;;3.73;3.33;;;28.70;78.70;;;;;;4976305;28;20565;-73
2021/09/24 11:06:47;;;;;;;3.20;2.90;;;29.50;72.20;;;;;;4975912;28;20456;-73
2021/09/24 11:09:15;;;;;;;3.00;2.80;;;29.80;65.30;;;;;;4975805;28;20963;-73
2021/09/24 11:11:46;;;;;;;3.00;2.70;;;30.90;64.40;;;;;;4975495;28;20484;-72
2021/09/24 11:14:33;;;;;;;5.70;5.10;;;31.00;61.80;;;;;;4975459;28;20489;-71
2021/09/24 11:17:02;;;;;;;3.80;3.47;;;31.50;59.50;;;;;;4976065;28;20878;-71
2021/09/24 11:19:42;;;;;;;3.60;3.30;;;31.10;56.80;;;;;;4976189;28;20452;-73
2021/09/24 11:22:19;;;;;;;3.13;2.83;;;30.90;58.30;;;;;;4975519;28;20456;-74
2021/09/24 11:24:49;;;;;;;2.80;2.60;;;29.50;60.30;;;;;;4975944;28;20479;-74
2021/09/24 11:27:32;;;;;;;3.03;2.73;;;28.60;60.80;;;;;;4976135;28;20460;-75
2021/09/24 11:30:27;;;;;;;3.10;2.90;;;28.00;65.40;;;;;;4975715;28;20456;-75
2021/09/24 11:32:56;;;;;;;2.97;2.77;;;27.40;69.40;;;;;;4940726;28;21003;-74
2021/09/24 11:35:37;;;;;;;3.17;2.50;;;27.10;69.30;;;;;;4977190;28;20489;-79
2021/09/24 11:38:17;;;;;;;3.00;2.80;;;26.80;71.20;;;;;;4980379;28;20482;-79
2021/09/24 11:40:54;;;;;;;8.00;6.97;;;26.10;69.10;;;;;;4980457;28;20815;-78
2021/09/24 11:43:28;;;;;;;3.77;3.47;;;25.50;73.30;;;;;;4978863;28;20827;-77
2021/09/24 11:45:56;;;;;;;3.37;2.37;;;25.40;75.20;;;;;;4977287;28;20540;-78
2021/09/24 11:48:32;;;;;;;2.80;2.60;;;25.90;75.40;;;;;;4978787;28;20449;-77
2021/09/24 11:51:16;;;;;;;4.30;3.30;;;26.30;72.50;;;;;;4978565;28;20485;-78
2021/09/24 11:53:52;;;;;;;2.80;2.60;;;25.90;73.30;;;;;;4975177;28;20537;-77
2021/09/24 11:56:21;;;;;;;2.73;2.53;;;26.10;74.90;;;;;;4975002;28;20485;-78
2021/09/24 11:59:05;;;;;;;2.83;2.53;;;26.90;74.80;;;;;;4976259;28;20532;-78
2021/09/24 12:01:32;;;;;;;3.50;3.20;;;27.20;69.60;;;;;;4975731;28;20477;-76
2021/09/24 12:04:00;;;;;;;3.00;2.80;;;27.80;70.80;;;;;;4973923;28;20469;-75
2021/09/24 12:06:29;;;;;;;2.90;2.70;;;28.10;65.90;;;;;;4978053;28;20545;-77
2021/09/24 12:09:02;;;;;;;2.60;2.40;;;27.70;64.50;;;;;;4975162;28;20511;-76
2021/09/24 12:11:40;;;;;;;2.60;2.40;;;27.20;66.80;;;;;;4974606;28;20881;-78
2021/09/24 12:14:09;;;;;;;3.07;2.77;;;26.80;67.00;;;;;;4975046;28;20505;-77
2021/09/24 12:16:40;;;;;;;3.20;2.90;;;26.10;68.40;;;;;;4974882;28;20484;-76
2021/09/24 12:19:09;;;;;;;4.77;3.07;;;25.70;69.50;;;;;;4974912;28;20796;-75
2021/09/24 12:21:48;;;;;;;3.37;3.10;;;25.00;71.30;;;;;;4974365;28;20454;-75
2021/09/24 12:24:17;;;;;;;3.30;3.00;;;24.60;72.50;;;;;;4974718;28;20567;-77
2021/09/24 12:26:47;;;;;;;4.23;3.80;;;24.30;72.40;;;;;;4975285;28;20458;-77
2021/09/24 12:29:17;;;;;;;3.37;3.07;;;24.30;74.60;;;;;;4975344;28;20528;-76
2021/09/24 12:31:47;;;;;;;3.20;2.90;;;24.10;73.10;;;;;;4977603;28;20892;-77
2021/09/24 12:34:16;;;;;;;3.37;3.10;;;23.90;75.90;;;;;;4975437;28;20490;-73
2021/09/24 12:36:52;;;;;;;3.10;2.80;;;23.90;77.90;;;;;;4978276;28;20490;-77
2021/09/24 12:39:22;;;;;;;2.83;2.50;;;23.80;76.10;;;;;;4977180;28;20498;-75
2021/09/24 12:41:50;;;;;;;3.50;3.20;;;23.80;76.70;;;;;;4975332;28;20448;-77
2021/09/24 12:44:18;;;;;;;3.33;3.03;;;23.70;75.50;;;;;;4976595;28;20478;-76
2021/09/24 12:46:47;;;;;;;3.17;2.87;;;23.60;77.20;;;;;;4976384;28;20456;-75
2021/09/24 12:49:17;;;;;;;2.93;2.63;;;23.50;81.70;;;;;;4975346;28;20452;-74
2021/09/24 12:51:45;;;;;;;3.80;3.50;;;23.40;77.00;;;;;;4978834;28;21239;-78